To NAV CANADA Home Page Login to a new session Search on AWWS site Feedback and Comments Disclaimer Vers la page française équivalente Tips FAQ What's new on the site To the Forecasts and Observations / NOTAM section To "File a Flight Plan" website Publications and other links Update of the User's profile FIC Telephone Numbers My Weather Data Folder Route Weather Data Regional Weather Data Local Weather Data To the Forecasts and Observations / NOTAM section
Request Generated 05/25/2017 at 01:07:05 UTC . Weather information available at that time is displayed.

METAR/TAF

NATASHQUAN/QC    (show WxCam)

METAR CYNA 250100Z AUTO 17005KT 9SM CLR 04/04 A2998 RMK SLP155=
METAR CYNA 250000Z AUTO 22002KT 9SM CLR 07/05 A2995 RMK SLP145=
METAR CYNA 242300Z AUTO 24004KT 220V280 9SM CLR 08/04 A2992 RMK
SLP135=

TAF CYNA 241939Z 2420/2508 22009KT P6SM BKN040
BECMG 2422/2424 VRB03KT
FM250300 VRB03KT P6SM SCT004 BKN030 PROB30 2503/2508 1/2SM FG
VV002
RMK FCST BASED ON AUTO OBS. NXT FCST BY 250200Z=
Your time UTC time
Weather data provided by Environment Canada and NAV CANADA